sensor_id;sensor_type;location;lat;lon;timestamp;pressure;altitude;pressure_sealevel;temperature;humidity
75418;BME280;63997;52.112;5.420;2023-06-24T00:01:26;102530.66;;;17.09;78.02
75418;BME280;63997;52.112;5.420;2023-06-24T00:03:52;102530.81;;;17.12;77.82
75418;BME280;63997;52.112;5.420;2023-06-24T00:06:20;102531.00;;;17.07;78.06
75418;BME280;63997;52.112;5.420;2023-06-24T00:08:47;102528.31;;;17.07;78.40
75418;BME280;63997;52.112;5.420;2023-06-24T00:11:13;102531.94;;;17.03;78.34
75418;BME280;63997;52.112;5.420;2023-06-24T00:13:41;102533.84;;;17.02;78.26
75418;BME280;63997;52.112;5.420;2023-06-24T00:16:07;102536.88;;;17.01;78.30
75418;BME280;63997;52.112;5.420;2023-06-24T00:18:36;102537.34;;;17.03;78.23
75418;BME280;63997;52.112;5.420;2023-06-24T00:21:03;102540.66;;;17.00;77.80
75418;BME280;63997;52.112;5.420;2023-06-24T00:23:31;102544.44;;;16.99;77.58
75418;BME280;63997;52.112;5.420;2023-06-24T00:26:01;102544.16;;;16.91;77.74
75418;BME280;63997;52.112;5.420;2023-06-24T00:28:28;102546.84;;;16.83;77.92
75418;BME280;63997;52.112;5.420;2023-06-24T00:30:54;102546.88;;;16.74;78.11
75418;BME280;63997;52.112;5.420;2023-06-24T00:33:21;102555.88;;;16.70;78.67
75418;BME280;63997;52.112;5.420;2023-06-24T00:35:48;102552.09;;;16.71;79.07
75418;BME280;63997;52.112;5.420;2023-06-24T00:38:14;102534.88;;;16.72;78.96
75418;BME280;63997;52.112;5.420;2023-06-24T00:40:41;102547.50;;;16.71;78.68
75418;BME280;63997;52.112;5.420;2023-06-24T00:43:08;102548.44;;;16.66;78.99
75418;BME280;63997;52.112;5.420;2023-06-24T00:45:35;102545.28;;;16.64;78.89
75418;BME280;63997;52.112;5.420;2023-06-24T00:48:02;102541.03;;;16.63;78.70
75418;BME280;63997;52.112;5.420;2023-06-24T00:50:30;102541.03;;;16.63;78.56
75418;BME280;63997;52.112;5.420;2023-06-24T00:52:56;102545.94;;;16.61;78.63
75418;BME280;63997;52.112;5.420;2023-06-24T00:55:23;102541.34;;;16.62;78.63
75418;BME280;63997;52.112;5.420;2023-06-24T00:57:52;102543.88;;;16.58;78.81
75418;BME280;63997;52.112;5.420;2023-06-24T01:00:21;102548.00;;;16.56;78.79
75418;BME280;63997;52.112;5.420;2023-06-24T01:02:49;102546.38;;;16.55;79.25
75418;BME280;63997;52.112;5.420;2023-06-24T01:05:15;102533.13;;;16.50;79.16
75418;BME280;63997;52.112;5.420;2023-06-24T01:07:43;102534.09;;;16.45;79.75
75418;BME280;63997;52.112;5.420;2023-06-24T01:10:10;102532.69;;;16.39;79.87
75418;BME280;63997;52.112;5.420;2023-06-24T01:12:40;102527.94;;;16.36;80.20
75418;BME280;63997;52.112;5.420;2023-06-24T01:15:08;102522.56;;;16.36;80.09
75418;BME280;63997;52.112;5.420;2023-06-24T01:20:36;102527.47;;;16.25;80.14
75418;BME280;63997;52.112;5.420;2023-06-24T01:32:11;102529.81;;;16.27;79.51
75418;BME280;63997;52.112;5.420;2023-06-24T01:34:55;102524.13;;;16.20;80.44
75418;BME280;63997;52.112;5.420;2023-06-24T01:37:40;102520.81;;;16.14;80.16
75418;BME280;63997;52.112;5.420;2023-06-24T01:40:11;102530.13;;;16.08;80.29
75418;BME280;63997;52.112;5.420;2023-06-24T01:42:41;102521.59;;;15.97;80.39
75418;BME280;63997;52.112;5.420;2023-06-24T01:45:12;102527.91;;;15.93;80.59
75418;BME280;63997;52.112;5.420;2023-06-24T01:47:40;102533.28;;;15.93;80.27
75418;BME280;63997;52.112;5.420;2023-06-24T01:50:11;102527.91;;;15.93;79.46
75418;BME280;63997;52.112;5.420;2023-06-24T01:52:41;102527.75;;;15.89;79.10
75418;BME280;63997;52.112;5.420;2023-06-24T01:55:10;102534.69;;;15.90;79.37
75418;BME280;63997;52.112;5.420;2023-06-24T01:57:40;102523.19;;;15.90;79.94
75418;BME280;63997;52.112;5.420;2023-06-24T02:00:09;102520.16;;;15.91;79.80
75418;BME280;63997;52.112;5.420;2023-06-24T02:02:38;102526.00;;;15.93;80.00
75418;BME280;63997;52.112;5.420;2023-06-24T02:05:06;102524.28;;;15.89;80.14
75418;BME280;63997;52.112;5.420;2023-06-24T02:07:34;102523.78;;;15.78;80.78
75418;BME280;63997;52.112;5.420;2023-06-24T02:10:01;102521.88;;;15.70;80.82
75418;BME280;63997;52.112;5.420;2023-06-24T02:12:29;102517.75;;;15.64;80.83
75418;BME280;63997;52.112;5.420;2023-06-24T02:14:58;102523.88;;;15.55;81.08
75418;BME280;63997;52.112;5.420;2023-06-24T02:17:25;102513.28;;;15.50;81.25
75418;BME280;63997;52.112;5.420;2023-06-24T02:19:57;102511.19;;;15.47;81.39
75418;BME280;63997;52.112;5.420;2023-06-24T02:22:24;102510.25;;;15.43;81.41
75418;BME280;63997;52.112;5.420;2023-06-24T02:24:51;102514.97;;;15.38;81.48
75418;BME280;63997;52.112;5.420;2023-06-24T02:27:18;102519.53;;;15.37;81.39
75418;BME280;63997;52.112;5.420;2023-06-24T02:29:46;102514.00;;;15.33;81.70
75418;BME280;63997;52.112;5.420;2023-06-24T02:32:13;102512.25;;;15.29;81.62
75418;BME280;63997;52.112;5.420;2023-06-24T02:34:40;102511.91;;;15.22;81.41
75418;BME280;63997;52.112;5.420;2023-06-24T02:37:16;102513.16;;;15.16;81.72
75418;BME280;63997;52.112;5.420;2023-06-24T02:39:42;102502.25;;;15.12;81.88
75418;BME280;63997;52.112;5.420;2023-06-24T02:42:11;102496.72;;;15.08;82.18
75418;BME280;63997;52.112;5.420;2023-06-24T02:44:42;102499.38;;;15.00;81.86
75418;BME280;63997;52.112;5.420;2023-06-24T02:47:11;102504.06;;;14.94;82.19
75418;BME280;63997;52.112;5.420;2023-06-24T02:49:39;102503.09;;;14.90;82.14
75418;BME280;63997;52.112;5.420;2023-06-24T02:52:06;102498.34;;;14.87;82.41
75418;BME280;63997;52.112;5.420;2023-06-24T02:54:33;102508.25;;;14.87;82.85
75418;BME280;63997;52.112;5.420;2023-06-24T02:57:00;102504.78;;;14.86;82.71
75418;BME280;63997;52.112;5.420;2023-06-24T02:59:27;102503.41;;;14.89;83.04
75418;BME280;63997;52.112;5.420;2023-06-24T03:01:54;102504.38;;;14.93;81.83
75418;BME280;63997;52.112;5.420;2023-06-24T03:04:22;102499.03;;;14.93;81.00
75418;BME280;63997;52.112;5.420;2023-06-24T03:06:50;102496.63;;;14.91;80.87
75418;BME280;63997;52.112;5.420;2023-06-24T03:09:18;102498.84;;;14.89;80.70
75418;BME280;63997;52.112;5.420;2023-06-24T03:11:44;102500.41;;;14.90;81.35
75418;BME280;63997;52.112;5.420;2023-06-24T03:14:11;102495.25;;;14.94;81.58
75418;BME280;63997;52.112;5.420;2023-06-24T03:16:37;102490.66;;;14.94;81.41
75418;BME280;63997;52.112;5.420;2023-06-24T03:19:07;102497.28;;;14.97;81.46
75418;BME280;63997;52.112;5.420;2023-06-24T03:21:34;102508.91;;;14.92;81.50
75418;BME280;63997;52.112;5.420;2023-06-24T03:24:03;102505.09;;;14.85;81.87
75418;BME280;63997;52.112;5.420;2023-06-24T03:26:40;102502.88;;;14.78;81.83
75418;BME280;63997;52.112;5.420;2023-06-24T03:29:07;102505.66;;;14.73;82.09
75418;BME280;63997;52.112;5.420;2023-06-24T03:31:34;102505.47;;;14.69;82.57
75418;BME280;63997;52.112;5.420;2023-06-24T03:34:00;102505.00;;;14.67;82.51
75418;BME280;63997;52.112;5.420;2023-06-24T03:36:27;102504.81;;;14.64;82.51
75418;BME280;63997;52.112;5.420;2023-06-24T03:38:53;102508.13;;;14.61;82.41
75418;BME280;63997;52.112;5.420;2023-06-24T03:41:20;102508.13;;;14.61;82.67
75418;BME280;63997;52.112;5.420;2023-06-24T03:43:46;102500.09;;;14.61;82.84
75418;BME280;63997;52.112;5.420;2023-06-24T03:46:13;102500.56;;;14.63;82.97
75418;BME280;63997;52.112;5.420;2023-06-24T03:48:40;102501.84;;;14.65;82.58
75418;BME280;63997;52.112;5.420;2023-06-24T03:51:21;102506.91;;;14.67;82.87
75418;BME280;63997;52.112;5.420;2023-06-24T03:53:49;102500.91;;;14.70;82.59
75418;BME280;63997;52.112;5.420;2023-06-24T03:56:16;102506.28;;;14.70;82.57
75418;BME280;63997;52.112;5.420;2023-06-24T03:58:43;102506.59;;;14.68;82.66
75418;BME280;63997;52.112;5.420;2023-06-24T04:01:10;102511.16;;;14.68;82.62
75418;BME280;63997;52.112;5.420;2023-06-24T04:03:36;102506.78;;;14.72;82.74
75418;BME280;63997;52.112;5.420;2023-06-24T04:06:03;102514.19;;;14.75;82.41
75418;BME280;63997;52.112;5.420;2023-06-24T04:08:29;102508.94;;;14.70;82.35
75418;BME280;63997;52.112;5.420;2023-06-24T04:10:56;102506.91;;;14.67;82.49
75418;BME280;63997;52.112;5.420;2023-06-24T04:13:23;102510.16;;;14.64;82.59
75418;BME280;63997;52.112;5.420;2023-06-24T04:15:49;102507.00;;;14.62;83.08
75418;BME280;63997;52.112;5.420;2023-06-24T04:18:16;102511.91;;;14.60;83.09
75418;BME280;63997;52.112;5.420;2023-06-24T04:20:42;102518.03;;;14.60;83.03
75418;BME280;63997;52.112;5.420;2023-06-24T04:23:08;102514.75;;;14.63;83.39
75418;BME280;63997;52.112;5.420;2023-06-24T04:25:37;102522.34;;;14.70;83.68
75418;BME280;63997;52.112;5.420;2023-06-24T04:28:04;102520.47;;;14.70;83.99
75418;BME280;63997;52.112;5.420;2023-06-24T04:30:31;102512.44;;;14.70;83.90
75418;BME280;63997;52.112;5.420;2023-06-24T04:32:58;102521.75;;;14.73;83.95
75418;BME280;63997;52.112;5.420;2023-06-24T04:35:24;102514.06;;;14.80;84.12
75418;BME280;63997;52.112;5.420;2023-06-24T04:37:51;102513.63;;;14.87;83.78
75418;BME280;63997;52.112;5.420;2023-06-24T04:40:18;102518.25;;;14.95;83.65
75418;BME280;63997;52.112;5.420;2023-06-24T04:42:45;102510.25;;;15.03;83.75
75418;BME280;63997;52.112;5.420;2023-06-24T04:45:12;102513.28;;;15.11;83.79
75418;BME280;63997;52.112;5.420;2023-06-24T04:47:38;102508.59;;;15.16;84.20
75418;BME280;63997;52.112;5.420;2023-06-24T04:50:05;102522.63;;;15.22;83.78
75418;BME280;63997;52.112;5.420;2023-06-24T04:52:32;102521.09;;;15.29;83.89
75418;BME280;63997;52.112;5.420;2023-06-24T04:54:59;102522.19;;;15.37;84.20
75418;BME280;63997;52.112;5.420;2023-06-24T04:57:32;102520.69;;;15.45;84.15
75418;BME280;63997;52.112;5.420;2023-06-24T04:59:58;102516.09;;;15.54;84.46
75418;BME280;63997;52.112;5.420;2023-06-24T05:02:26;102516.19;;;15.63;84.28
75418;BME280;63997;52.112;5.420;2023-06-24T05:04:53;102518.06;;;15.71;83.83
75418;BME280;63997;52.112;5.420;2023-06-24T05:07:20;102528.50;;;15.81;84.47
75418;BME280;63997;52.112;5.420;2023-06-24T05:09:47;102528.22;;;15.91;84.88
75418;BME280;63997;52.112;5.420;2023-06-24T05:12:14;102529.50;;;16.02;84.67
75418;BME280;63997;52.112;5.420;2023-06-24T05:14:42;102538.97;;;16.08;84.41
75418;BME280;63997;52.112;5.420;2023-06-24T05:17:09;102533.59;;;16.08;84.48
75418;BME280;63997;52.112;5.420;2023-06-24T05:19:38;102530.31;;;16.11;84.47
75418;BME280;63997;52.112;5.420;2023-06-24T05:22:04;102537.72;;;16.14;84.44
75418;BME280;63997;52.112;5.420;2023-06-24T05:24:31;102530.63;;;16.19;84.48
75418;BME280;63997;52.112;5.420;2023-06-24T05:27:04;102529.34;;;16.25;84.51
75418;BME280;63997;52.112;5.420;2023-06-24T05:29:32;102524.28;;;16.32;84.55
75418;BME280;63997;52.112;5.420;2023-06-24T05:32:02;102523.97;;;16.42;84.55
75418;BME280;63997;52.112;5.420;2023-06-24T05:34:30;102521.91;;;16.48;84.69
75418;BME280;63997;52.112;5.420;2023-06-24T05:36:57;102524.13;;;16.54;83.66
75418;BME280;63997;52.112;5.420;2023-06-24T05:39:24;102522.69;;;16.65;82.76
75418;BME280;63997;52.112;5.420;2023-06-24T05:41:50;102528.69;;;16.80;82.07
75418;BME280;63997;52.112;5.420;2023-06-24T05:44:17;102530.72;;;16.91;81.49
75418;BME280;63997;52.112;5.420;2023-06-24T05:46:46;102534.00;;;17.06;80.96
75418;BME280;63997;52.112;5.420;2023-06-24T05:49:12;102535.38;;;17.21;80.83
75418;BME280;63997;52.112;5.420;2023-06-24T05:51:39;102536.75;;;17.35;81.85
75418;BME280;63997;52.112;5.420;2023-06-24T05:54:06;102527.03;;;17.43;82.24
75418;BME280;63997;52.112;5.420;2023-06-24T05:56:34;102533.41;;;18.18;82.36
75418;BME280;63997;52.112;5.420;2023-06-24T05:59:05;102523.38;;;21.93;72.59
75418;BME280;63997;52.112;5.420;2023-06-24T06:01:32;102518.78;;;25.33;60.66
75418;BME280;63997;52.112;5.420;2023-06-24T06:03:58;102524.69;;;27.44;52.08
75418;BME280;63997;52.112;5.420;2023-06-24T06:06:25;102525.81;;;27.64;48.25
75418;BME280;63997;52.112;5.420;2023-06-24T06:08:51;102536.06;;;26.64;49.88
75418;BME280;63997;52.112;5.420;2023-06-24T06:11:18;102525.56;;;25.61;51.76
75418;BME280;63997;52.112;5.420;2023-06-24T06:13:44;102525.03;;;26.25;51.01
75418;BME280;63997;52.112;5.420;2023-06-24T06:16:11;102523.56;;;27.02;48.25
75418;BME280;63997;52.112;5.420;2023-06-24T06:18:40;102520.69;;;29.03;44.43
75418;BME280;63997;52.112;5.420;2023-06-24T06:21:08;102527.53;;;30.74;40.46
75418;BME280;63997;52.112;5.420;2023-06-24T06:23:34;102527.72;;;31.90;38.01
75418;BME280;63997;52.112;5.420;2023-06-24T06:26:01;102527.91;;;32.52;35.95
75418;BME280;63997;52.112;5.420;2023-06-24T06:28:27;102531.72;;;33.32;33.45
75418;BME280;63997;52.112;5.420;2023-06-24T06:30:54;102539.78;;;33.81;33.14
75418;BME280;63997;52.112;5.420;2023-06-24T06:33:20;102530.41;;;34.42;31.07
75418;BME280;63997;52.112;5.420;2023-06-24T06:35:47;102531.78;;;34.85;31.39
75418;BME280;63997;52.112;5.420;2023-06-24T06:38:13;102529.75;;;35.20;29.69
75418;BME280;63997;52.112;5.420;2023-06-24T06:40:40;102526.97;;;35.64;29.89
75418;BME280;63997;52.112;5.420;2023-06-24T06:43:07;102531.53;;;35.89;28.56
75418;BME280;63997;52.112;5.420;2023-06-24T06:45:33;102531.53;;;36.20;28.86
75418;BME280;63997;52.112;5.420;2023-06-24T06:48:00;102531.47;;;36.70;27.26
75418;BME280;63997;52.112;5.420;2023-06-24T06:50:26;102533.78;;;37.36;26.73
75418;BME280;63997;52.112;5.420;2023-06-24T06:52:53;102536.78;;;37.65;26.40
75418;BME280;63997;52.112;5.420;2023-06-24T06:55:20;102533.00;;;37.87;26.27
75418;BME280;63997;52.112;5.420;2023-06-24T06:57:47;102528.91;;;37.64;26.43
75418;BME280;63997;52.112;5.420;2023-06-24T07:00:14;102535.25;;;36.36;27.00
75418;BME280;63997;52.112;5.420;2023-06-24T07:02:42;102533.13;;;34.68;29.92
75418;BME280;63997;52.112;5.420;2023-06-24T07:05:09;102534.84;;;35.22;30.09
75418;BME280;63997;52.112;5.420;2023-06-24T07:07:43;102533.91;;;35.69;29.11
75418;BME280;63997;52.112;5.420;2023-06-24T07:10:14;102529.44;;;34.96;30.05
75418;BME280;63997;52.112;5.420;2023-06-24T07:12:43;102536.97;;;34.83;29.57
75418;BME280;63997;52.112;5.420;2023-06-24T07:15:11;102527.75;;;35.21;29.41
75418;BME280;63997;52.112;5.420;2023-06-24T07:17:39;102534.41;;;34.54;29.93
75418;BME280;63997;52.112;5.420;2023-06-24T07:20:06;102539.47;;;34.43;30.37
75418;BME280;63997;52.112;5.420;2023-06-24T07:22:33;102533.47;;;35.05;29.01
75418;BME280;63997;52.112;5.420;2023-06-24T07:24:59;102537.53;;;35.35;28.18
75418;BME280;63997;52.112;5.420;2023-06-24T07:27:27;102539.00;;;34.70;29.88
75418;BME280;63997;52.112;5.420;2023-06-24T07:29:53;102545.88;;;34.65;29.21
75418;BME280;63997;52.112;5.420;2023-06-24T07:32:19;102546.53;;;33.67;30.78
75418;BME280;63997;52.112;5.420;2023-06-24T07:34:46;102546.69;;;34.02;31.58
75418;BME280;63997;52.112;5.420;2023-06-24T07:37:12;102540.16;;;34.47;30.57
75418;BME280;63997;52.112;5.420;2023-06-24T07:39:49;102547.56;;;34.50;31.23
75418;BME280;63997;52.112;5.420;2023-06-24T07:42:16;102540.66;;;33.36;31.24
75418;BME280;63997;52.112;5.420;2023-06-24T07:44:48;102541.66;;;32.52;32.11
75418;BME280;63997;52.112;5.420;2023-06-24T07:47:16;102547.97;;;32.00;34.75
75418;BME280;63997;52.112;5.420;2023-06-24T07:49:43;102539.09;;;31.32;35.26
75418;BME280;63997;52.112;5.420;2023-06-24T07:52:10;102532.31;;;30.70;35.82
75418;BME280;63997;52.112;5.420;2023-06-24T07:54:36;102532.56;;;30.52;36.64
75418;BME280;63997;52.112;5.420;2023-06-24T07:57:03;102528.88;;;30.63;36.18
75418;BME280;63997;52.112;5.420;2023-06-24T07:59:29;102525.84;;;30.80;37.47
75418;BME280;63997;52.112;5.420;2023-06-24T08:01:56;102531.63;;;30.63;36.44
75418;BME280;63997;52.112;5.420;2023-06-24T08:04:23;102533.69;;;30.32;37.41
75418;BME280;63997;52.112;5.420;2023-06-24T08:06:49;102527.47;;;30.27;38.07
75418;BME280;63997;52.112;5.420;2023-06-24T08:09:16;102524.34;;;29.95;37.61
75418;BME280;63997;52.112;5.420;2023-06-24T08:11:43;102526.13;;;29.44;38.78
75418;BME280;63997;52.112;5.420;2023-06-24T08:14:10;102534.59;;;29.22;38.52
75418;BME280;63997;52.112;5.420;2023-06-24T08:16:36;102519.03;;;29.12;38.47
75418;BME280;63997;52.112;5.420;2023-06-24T08:19:03;102530.94;;;28.95;40.19
75418;BME280;63997;52.112;5.420;2023-06-24T08:21:29;102526.47;;;29.12;40.40
75418;BME280;63997;52.112;5.420;2023-06-24T08:23:56;102529.06;;;28.85;40.17
75418;BME280;63997;52.112;5.420;2023-06-24T08:26:23;102530.06;;;28.57;41.15
75418;BME280;63997;52.112;5.420;2023-06-24T08:28:51;102519.72;;;28.19;42.28
75418;BME280;63997;52.112;5.420;2023-06-24T08:31:17;102523.63;;;28.18;41.67
75418;BME280;63997;52.112;5.420;2023-06-24T08:33:45;102523.22;;;28.24;42.38
75418;BME280;63997;52.112;5.420;2023-06-24T08:36:14;102530.44;;;27.82;41.60
75418;BME280;63997;52.112;5.420;2023-06-24T08:38:43;102525.41;;;27.73;41.58
75418;BME280;63997;52.112;5.420;2023-06-24T08:41:11;102525.84;;;27.54;43.14
75418;BME280;63997;52.112;5.420;2023-06-24T08:43:43;102534.50;;;27.31;43.29
75418;BME280;63997;52.112;5.420;2023-06-24T08:46:13;102524.34;;;27.28;42.56
75418;BME280;63997;52.112;5.420;2023-06-24T08:48:45;102524.38;;;27.10;43.90
75418;BME280;63997;52.112;5.420;2023-06-24T08:51:20;102520.44;;;26.93;43.88
75418;BME280;63997;52.112;5.420;2023-06-24T08:53:50;102520.44;;;26.93;44.69
75418;BME280;63997;52.112;5.420;2023-06-24T08:56:18;102519.66;;;27.03;45.28
75418;BME280;63997;52.112;5.420;2023-06-24T08:58:46;102518.94;;;27.06;45.46
75418;BME280;63997;52.112;5.420;2023-06-24T09:01:14;102511.88;;;27.12;46.08
75418;BME280;63997;52.112;5.420;2023-06-24T09:03:43;102512.66;;;27.13;46.13
75418;BME280;63997;52.112;5.420;2023-06-24T09:06:10;102515.38;;;27.06;46.30
75418;BME280;63997;52.112;5.420;2023-06-24T09:08:36;102517.75;;;27.07;47.11
75418;BME280;63997;52.112;5.420;2023-06-24T09:11:08;102513.06;;;27.11;45.71
75418;BME280;63997;52.112;5.420;2023-06-24T09:13:34;102515.00;;;27.07;46.01
75418;BME280;63997;52.112;5.420;2023-06-24T09:16:12;102505.25;;;27.06;45.52
75418;BME280;63997;52.112;5.420;2023-06-24T09:18:40;102507.59;;;27.08;45.35
75418;BME280;63997;52.112;5.420;2023-06-24T09:21:07;102513.84;;;26.94;44.55
75418;BME280;63997;52.112;5.420;2023-06-24T09:23:37;102502.91;;;26.87;45.92
75418;BME280;63997;52.112;5.420;2023-06-24T09:26:03;102504.84;;;27.01;46.80
75418;BME280;63997;52.112;5.420;2023-06-24T09:28:30;102501.72;;;27.09;47.20
75418;BME280;63997;52.112;5.420;2023-06-24T09:31:07;102496.66;;;27.08;46.91
75418;BME280;63997;52.112;5.420;2023-06-24T09:33:46;102508.00;;;27.06;45.77
75418;BME280;63997;52.112;5.420;2023-06-24T09:36:16;102498.22;;;27.09;47.50
75418;BME280;63997;52.112;5.420;2023-06-24T09:38:44;102490.81;;;27.13;47.27
75418;BME280;63997;52.112;5.420;2023-06-24T09:41:11;102492.34;;;27.25;46.36
75418;BME280;63997;52.112;5.420;2023-06-24T09:43:41;102488.78;;;27.42;45.92
75418;BME280;63997;52.112;5.420;2023-06-24T09:46:08;102488.41;;;27.36;45.60
75418;BME280;63997;52.112;5.420;2023-06-24T09:48:35;102493.06;;;27.43;45.95
75418;BME280;63997;52.112;5.420;2023-06-24T09:51:03;102486.06;;;27.38;46.39
75418;BME280;63997;52.112;5.420;2023-06-24T09:53:32;102486.03;;;27.49;44.15
75418;BME280;63997;52.112;5.420;2023-06-24T09:56:03;102482.09;;;27.57;45.89
75418;BME280;63997;52.112;5.420;2023-06-24T09:58:35;102477.78;;;27.63;46.38
75418;BME280;63997;52.112;5.420;2023-06-24T10:01:04;102477.41;;;27.58;47.05
75418;BME280;63997;52.112;5.420;2023-06-24T10:03:33;102477.00;;;27.59;44.82
75418;BME280;63997;52.112;5.420;2023-06-24T10:06:02;102478.59;;;27.57;45.09
75418;BME280;63997;52.112;5.420;2023-06-24T10:08:30;102483.66;;;27.58;45.46
75418;BME280;63997;52.112;5.420;2023-06-24T10:10:58;102474.69;;;27.54;46.78
75418;BME280;63997;52.112;5.420;2023-06-24T10:13:25;102479.31;;;27.72;43.90
75418;BME280;63997;52.112;5.420;2023-06-24T10:15:54;102474.56;;;27.83;45.20
75418;BME280;63997;52.112;5.420;2023-06-24T10:18:37;102474.19;;;27.84;44.08
75418;BME280;63997;52.112;5.420;2023-06-24T10:21:05;102474.19;;;27.84;45.82
75418;BME280;63997;52.112;5.420;2023-06-24T10:26:28;102471.84;;;27.83;45.17
75418;BME280;63997;52.112;5.420;2023-06-24T10:37:02;102466.38;;;27.86;45.07
75418;BME280;63997;52.112;5.420;2023-06-24T10:39:49;102467.03;;;28.08;45.27
75418;BME280;63997;52.112;5.420;2023-06-24T10:42:41;102469.38;;;28.06;46.65
75418;BME280;63997;52.112;5.420;2023-06-24T10:47:35;102464.16;;;28.30;45.62
75418;BME280;63997;52.112;5.420;2023-06-24T10:50:03;102457.91;;;28.26;45.07
75418;BME280;63997;52.112;5.420;2023-06-24T10:52:30;102466.84;;;28.37;45.79
75418;BME280;63997;52.112;5.420;2023-06-24T10:54:57;102464.00;;;28.51;45.94
75418;BME280;63997;52.112;5.420;2023-06-24T10:57:26;102458.38;;;28.69;44.85
75418;BME280;63997;52.112;5.420;2023-06-24T10:59:54;102452.38;;;28.85;44.50
75418;BME280;63997;52.112;5.420;2023-06-24T11:02:22;102449.06;;;29.04;45.72
75418;BME280;63997;52.112;5.420;2023-06-24T11:04:57;102453.59;;;29.18;44.00
75418;BME280;63997;52.112;5.420;2023-06-24T11:07:28;102455.50;;;29.24;43.98
75418;BME280;63997;52.112;5.420;2023-06-24T11:10:01;102445.44;;;29.11;41.82
75418;BME280;63997;52.112;5.420;2023-06-24T11:12:32;102439.41;;;29.27;43.67
75418;BME280;63997;52.112;5.420;2023-06-24T11:15:05;102441.56;;;29.42;43.33
75418;BME280;63997;52.112;5.420;2023-06-24T11:17:34;102439.50;;;29.50;40.11
75418;BME280;63997;52.112;5.420;2023-06-24T11:20:06;102448.28;;;29.68;41.07
75418;BME280;63997;52.112;5.420;2023-06-24T11:22:33;102434.31;;;29.59;42.54
75418;BME280;63997;52.112;5.420;2023-06-24T11:24:59;102440.69;;;29.80;44.18
75418;BME280;63997;52.112;5.420;2023-06-24T11:27:28;102444.31;;;30.00;41.44
75418;BME280;63997;52.112;5.420;2023-06-24T11:30:02;102443.31;;;30.17;41.90
75418;BME280;63997;52.112;5.420;2023-06-24T11:32:40;102436.81;;;30.04;40.92
75418;BME280;63997;52.112;5.420;2023-06-24T11:35:12;102436.47;;;29.75;40.83
75418;BME280;63997;52.112;5.420;2023-06-24T11:37:43;102441.56;;;29.42;43.10
75418;BME280;63997;52.112;5.420;2023-06-24T11:40:10;102430.72;;;29.32;44.03
75418;BME280;63997;52.112;5.420;2023-06-24T11:42:39;102432.72;;;29.62;43.37
75418;BME280;63997;52.112;5.420;2023-06-24T11:45:07;102433.94;;;29.88;43.04
75418;BME280;63997;52.112;5.420;2023-06-24T11:47:39;102418.56;;;30.21;41.49
75418;BME280;63997;52.112;5.420;2023-06-24T11:50:07;102422.31;;;30.54;41.58
75418;BME280;63997;52.112;5.420;2023-06-24T11:55:02;102413.06;;;30.21;41.75
75418;BME280;63997;52.112;5.420;2023-06-24T12:00:15;102422.19;;;29.87;42.38
75418;BME280;63997;52.112;5.420;2023-06-24T12:02:41;102423.16;;;29.73;40.45
75418;BME280;63997;52.112;5.420;2023-06-24T12:05:08;102420.94;;;29.65;43.32
75418;BME280;63997;52.112;5.420;2023-06-24T12:07:35;102418.69;;;29.56;43.19
75418;BME280;63997;52.112;5.420;2023-06-24T12:10:03;102406.34;;;29.41;40.17
75418;BME280;63997;52.112;5.420;2023-06-24T12:12:31;102409.53;;;29.36;41.20
75418;BME280;63997;52.112;5.420;2023-06-24T12:14:57;102416.69;;;29.26;43.46
75418;BME280;63997;52.112;5.420;2023-06-24T12:17:24;102420.84;;;29.07;42.26
75418;BME280;63997;52.112;5.420;2023-06-24T12:19:50;102416.28;;;28.90;46.39
75418;BME280;63997;52.112;5.420;2023-06-24T12:22:17;102414.94;;;28.71;42.85
75418;BME280;63997;52.112;5.420;2023-06-24T12:24:43;102414.19;;;28.67;42.76
75418;BME280;63997;52.112;5.420;2023-06-24T12:27:09;102409.47;;;28.67;42.39
75418;BME280;63997;52.112;5.420;2023-06-24T12:29:36;102404.00;;;28.67;42.46
75418;BME280;63997;52.112;5.420;2023-06-24T12:32:03;102407.91;;;28.66;45.64
75418;BME280;63997;52.112;5.420;2023-06-24T12:34:29;102405.19;;;28.66;46.67
75418;BME280;63997;52.112;5.420;2023-06-24T12:36:56;102404.84;;;28.61;44.30
75418;BME280;63997;52.112;5.420;2023-06-24T12:39:22;102403.66;;;28.62;44.58
75418;BME280;63997;52.112;5.420;2023-06-24T12:41:48;102399.44;;;28.57;46.64
75418;BME280;63997;52.112;5.420;2023-06-24T12:44:15;102399.03;;;28.55;47.99
75418;BME280;63997;52.112;5.420;2023-06-24T12:46:41;102401.88;;;28.44;49.65
75418;BME280;63997;52.112;5.420;2023-06-24T12:49:09;102396.34;;;28.52;44.21
75418;BME280;63997;52.112;5.420;2023-06-24T12:51:39;102396.59;;;28.64;44.59
75418;BME280;63997;52.112;5.420;2023-06-24T12:54:06;102393.19;;;28.57;45.11
75418;BME280;63997;52.112;5.420;2023-06-24T12:56:32;102392.69;;;28.65;46.53
75418;BME280;63997;52.112;5.420;2023-06-24T12:58:59;102383.66;;;28.68;46.92
75418;BME280;63997;52.112;5.420;2023-06-24T13:01:25;102387.28;;;28.58;45.14
75418;BME280;63997;52.112;5.420;2023-06-24T13:03:52;102380.53;;;28.66;42.17
75418;BME280;63997;52.112;5.420;2023-06-24T13:06:19;102376.56;;;28.75;41.13
75418;BME280;63997;52.112;5.420;2023-06-24T13:08:45;102375.78;;;28.74;42.53
75418;BME280;63997;52.112;5.420;2023-06-24T13:11:11;102381.94;;;28.85;42.23
75418;BME280;63997;52.112;5.420;2023-06-24T13:13:38;102373.28;;;28.87;44.36
75418;BME280;63997;52.112;5.420;2023-06-24T13:16:04;102379.66;;;28.77;43.53
75418;BME280;63997;52.112;5.420;2023-06-24T13:18:31;102384.34;;;28.80;44.67
75418;BME280;63997;52.112;5.420;2023-06-24T13:20:57;102376.56;;;28.75;46.17
75418;BME280;63997;52.112;5.420;2023-06-24T13:23:42;102373.81;;;28.75;47.32
75418;BME280;63997;52.112;5.420;2023-06-24T13:26:12;102376.19;;;28.72;41.89